createdAt,value
2019-03-24T00:00:31.373Z,862.04
2019-03-24T00:01:40.787Z,862.07
2019-03-24T00:02:31.112Z,862.09
2019-03-24T00:03:30.980Z,862.09
2019-03-24T00:04:30.851Z,862.09
2019-03-24T00:05:30.720Z,862.04
2019-03-24T00:06:32.315Z,862.05
2019-03-24T00:07:30.458Z,862.09
2019-03-24T00:08:30.330Z,862.05
2019-03-24T00:09:30.198Z,862.04
2019-03-24T00:10:30.070Z,862.04
2019-03-24T00:11:29.940Z,862.04
2019-03-24T00:12:29.809Z,862.01
2019-03-24T00:13:29.694Z,862.03
2019-03-24T00:14:29.553Z,862.03
2019-03-24T00:15:29.419Z,862.04
2019-03-24T00:16:29.288Z,862.02
2019-03-24T00:17:29.159Z,862.01
2019-03-24T00:18:29.028Z,862.01
2019-03-24T00:19:28.897Z,862.05
2019-03-24T00:20:28.771Z,862.00
2019-03-24T00:21:28.640Z,862.00
2019-03-24T00:22:28.515Z,862.01
2019-03-24T00:23:28.375Z,861.99
2019-03-24T00:24:28.244Z,861.98
2019-03-24T00:25:28.116Z,861.97
2019-03-24T00:26:27.984Z,861.96
2019-03-24T00:27:27.854Z,861.95
2019-03-24T00:28:27.728Z,861.93
2019-03-24T00:29:27.594Z,861.96
2019-03-24T00:30:27.466Z,861.98
2019-03-24T00:31:27.332Z,861.97
2019-03-24T00:32:27.204Z,861.96
2019-03-24T00:33:27.081Z,861.98
2019-03-24T00:34:26.945Z,861.95
2019-03-24T00:35:26.811Z,861.95
2019-03-24T00:36:26.681Z,861.99
2019-03-24T00:37:26.554Z,861.96
2019-03-24T00:38:26.422Z,861.97
2019-03-24T00:39:26.296Z,861.93
2019-03-24T00:40:26.161Z,861.93
2019-03-24T00:41:26.032Z,861.94
2019-03-24T00:42:25.905Z,861.89
2019-03-24T00:43:25.773Z,861.91
2019-03-24T00:44:25.638Z,861.92
2019-03-24T00:45:36.251Z,861.91
2019-03-24T00:46:25.380Z,861.92
2019-03-24T00:47:25.249Z,861.91
2019-03-24T00:48:25.922Z,861.89
2019-03-24T00:49:24.992Z,861.88
2019-03-24T00:50:24.858Z,861.86
2019-03-24T00:51:26.319Z,861.85
2019-03-24T00:52:24.599Z,861.88
2019-03-24T00:53:24.468Z,861.86
2019-03-24T00:54:24.336Z,861.84
2019-03-24T00:55:24.207Z,861.81
2019-03-24T00:56:24.077Z,861.86
2019-03-24T00:57:23.946Z,861.82
2019-03-24T00:58:23.821Z,861.83
2019-03-24T00:59:23.686Z,861.83
2019-03-24T01:00:23.555Z,861.82
2019-03-24T01:01:23.426Z,861.79
2019-03-24T01:02:23.294Z,861.74
2019-03-24T01:03:23.164Z,861.74
2019-03-24T01:04:23.031Z,861.71
2019-03-24T01:05:22.904Z,861.72
2019-03-24T01:06:22.774Z,861.75
2019-03-24T01:07:22.643Z,861.73
2019-03-24T01:08:22.517Z,861.74
2019-03-24T01:09:22.383Z,861.70
2019-03-24T01:10:22.253Z,861.76
2019-03-24T01:11:22.120Z,861.73
2019-03-24T01:12:22.019Z,861.74
2019-03-24T01:13:21.872Z,861.70
2019-03-24T01:14:21.732Z,861.73
2019-03-24T01:15:21.598Z,861.70
2019-03-24T01:16:21.469Z,861.66
2019-03-24T01:17:21.984Z,861.70
2019-03-24T01:18:21.210Z,861.68
2019-03-24T01:19:21.091Z,861.66
2019-03-24T01:20:20.955Z,861.63
2019-03-24T01:21:20.817Z,861.62
2019-03-24T01:22:20.688Z,861.64
2019-03-24T01:23:20.557Z,861.60
2019-03-24T01:24:20.427Z,861.61
2019-03-24T01:25:20.297Z,861.58
2019-03-24T01:26:20.166Z,861.61
2019-03-24T01:27:20.037Z,861.59
2019-03-24T01:28:19.906Z,861.54
2019-03-24T01:29:19.777Z,861.54
2019-03-24T01:30:19.646Z,861.53
2019-03-24T01:31:19.515Z,861.50
2019-03-24T01:32:19.386Z,861.50
2019-03-24T01:33:19.253Z,861.50
2019-03-24T01:34:19.124Z,861.53
2019-03-24T01:35:18.998Z,861.49
2019-03-24T01:36:18.863Z,861.53
2019-03-24T01:37:18.732Z,861.53
2019-03-24T01:38:18.619Z,861.47
2019-03-24T01:39:18.496Z,861.48
2019-03-24T01:40:18.339Z,861.48
2019-03-24T01:41:18.222Z,861.45
2019-03-24T01:42:18.080Z,861.44
2019-03-24T01:43:17.950Z,861.43
2019-03-24T01:44:17.818Z,861.43
2019-03-24T01:45:17.690Z,861.41
2019-03-24T01:46:17.994Z,861.46
2019-03-24T01:47:17.426Z,861.43
2019-03-24T01:48:17.297Z,861.42
2019-03-24T01:49:17.177Z,861.41
2019-03-24T01:50:17.042Z,861.38
2019-03-24T01:51:16.903Z,861.39
2019-03-24T01:52:16.782Z,861.38
2019-03-24T01:53:16.644Z,861.34
2019-03-24T01:54:16.513Z,861.36
2019-03-24T01:55:16.382Z,861.34
2019-03-24T01:56:16.252Z,861.29
2019-03-24T01:57:16.121Z,861.29
2019-03-24T01:58:15.990Z,861.29
2019-03-24T01:59:15.862Z,861.27
2019-03-24T02:00:15.734Z,861.26
2019-03-24T02:01:15.602Z,861.23
2019-03-24T02:02:15.517Z,861.23
2019-03-24T02:03:15.339Z,861.26
2019-03-24T02:04:15.207Z,861.19
2019-03-24T02:05:15.082Z,861.21
2019-03-24T02:06:14.950Z,861.23
2019-03-24T02:07:14.818Z,861.16
2019-03-24T02:08:14.686Z,861.16
2019-03-24T02:09:14.561Z,861.14
2019-03-24T02:10:14.428Z,861.14
2019-03-24T02:11:14.295Z,861.13
2019-03-24T02:12:14.163Z,861.11
2019-03-24T02:13:14.032Z,861.12
2019-03-24T02:14:13.905Z,861.06
2019-03-24T02:15:14.009Z,861.08
2019-03-24T02:16:13.642Z,861.07
2019-03-24T02:17:13.512Z,861.06
2019-03-24T02:18:13.381Z,861.04
2019-03-24T02:19:13.254Z,861.06
2019-03-24T02:20:13.120Z,861.03
2019-03-24T02:21:12.996Z,861.01
2019-03-24T02:22:12.859Z,860.98
2019-03-24T02:23:12.730Z,860.99
2019-03-24T02:24:12.604Z,860.99
2019-03-24T02:25:34.013Z,860.97
2019-03-24T02:26:12.341Z,860.98
2019-03-24T02:27:12.208Z,860.99
2019-03-24T02:28:12.077Z,860.99
2019-03-24T02:29:11.948Z,860.98
2019-03-24T02:30:11.815Z,860.96
2019-03-24T02:31:11.706Z,860.97
2019-03-24T02:32:11.556Z,860.99
2019-03-24T02:33:11.422Z,860.97
2019-03-24T02:34:11.309Z,860.96
2019-03-24T02:35:11.164Z,860.95
2019-03-24T02:36:11.033Z,860.96
2019-03-24T02:37:10.900Z,860.98
2019-03-24T02:38:10.771Z,860.97
2019-03-24T02:39:10.644Z,860.97
2019-03-24T02:40:10.511Z,860.93
2019-03-24T02:41:10.381Z,860.91
2019-03-24T02:42:10.271Z,860.90
2019-03-24T02:43:10.119Z,860.90
2019-03-24T02:44:10.045Z,860.88
2019-03-24T02:45:09.864Z,860.89
2019-03-24T02:46:23.144Z,860.92
2019-03-24T02:47:09.597Z,860.88
2019-03-24T02:48:09.465Z,860.86
2019-03-24T02:49:09.336Z,860.87
2019-03-24T02:50:09.204Z,860.86
2019-03-24T02:51:09.073Z,860.85
2019-03-24T02:52:08.941Z,860.82
2019-03-24T02:53:08.817Z,860.86
2019-03-24T02:54:08.687Z,860.83
2019-03-24T02:55:08.556Z,860.80
2019-03-24T02:56:08.428Z,860.85
2019-03-24T02:57:08.294Z,860.79
2019-03-24T02:58:08.166Z,860.80
2019-03-24T02:59:08.051Z,860.80
2019-03-24T03:00:07.898Z,860.76
2019-03-24T03:01:07.767Z,860.78
2019-03-24T03:02:07.641Z,860.77
2019-03-24T03:03:07.506Z,860.75
2019-03-24T03:04:07.376Z,860.77
2019-03-24T03:05:07.252Z,860.78
2019-03-24T03:06:07.115Z,860.76
2019-03-24T03:07:06.988Z,860.75
2019-03-24T03:08:06.861Z,860.80
2019-03-24T03:09:06.725Z,860.79
2019-03-24T03:10:06.597Z,860.79
2019-03-24T03:11:06.464Z,860.78
2019-03-24T03:12:06.332Z,860.80
2019-03-24T03:13:06.209Z,860.78
2019-03-24T03:14:06.072Z,860.75
2019-03-24T03:15:05.941Z,860.76
2019-03-24T03:16:05.814Z,860.78
2019-03-24T03:17:05.689Z,860.78
2019-03-24T03:18:05.567Z,860.78
2019-03-24T03:19:05.421Z,860.79
2019-03-24T03:20:05.293Z,860.80
2019-03-24T03:21:05.160Z,860.78
2019-03-24T03:22:05.032Z,860.74
2019-03-24T03:23:04.917Z,860.77
2019-03-24T03:24:04.768Z,860.73
2019-03-24T03:25:04.638Z,860.70
2019-03-24T03:26:04.507Z,860.71
2019-03-24T03:27:04.388Z,860.72
2019-03-24T03:28:04.247Z,860.75
2019-03-24T03:29:04.139Z,860.77
2019-03-24T03:30:03.988Z,860.72
2019-03-24T03:31:03.867Z,860.76
2019-03-24T03:32:03.728Z,860.72
2019-03-24T03:33:03.611Z,860.75
2019-03-24T03:34:03.465Z,860.71
2019-03-24T03:35:03.349Z,860.74
2019-03-24T03:36:03.254Z,860.76
2019-03-24T03:37:03.080Z,860.72
2019-03-24T03:38:02.944Z,860.69
2019-03-24T03:39:02.813Z,860.71
2019-03-24T03:40:02.684Z,860.66
2019-03-24T03:41:02.553Z,860.67
2019-03-24T03:42:02.435Z,860.68
2019-03-24T03:43:02.290Z,860.68
2019-03-24T03:44:02.165Z,860.68
2019-03-24T03:45:02.035Z,860.66
2019-03-24T03:46:01.902Z,860.66
2019-03-24T03:47:01.772Z,860.67
2019-03-24T03:48:01.637Z,860.65
2019-03-24T03:49:01.516Z,860.70
2019-03-24T03:50:01.380Z,860.67
2019-03-24T03:51:01.248Z,860.68
2019-03-24T03:52:01.119Z,860.68
2019-03-24T03:53:00.989Z,860.67
2019-03-24T03:54:00.862Z,860.68
2019-03-24T03:55:00.724Z,860.67
2019-03-24T03:56:00.595Z,860.63
2019-03-24T03:57:00.465Z,860.64
2019-03-24T03:58:00.333Z,860.64
2019-03-24T03:59:00.203Z,860.65
2019-03-24T04:00:00.121Z,860.71
2019-03-24T04:00:59.942Z,860.64
2019-03-24T04:01:59.809Z,860.66
2019-03-24T04:02:59.685Z,860.63
2019-03-24T04:03:59.556Z,860.62
2019-03-24T04:04:59.421Z,860.61
2019-03-24T04:05:59.301Z,860.63
2019-03-24T04:06:59.159Z,860.62
2019-03-24T04:07:59.028Z,860.62
2019-03-24T04:08:58.900Z,860.61
2019-03-24T04:09:58.767Z,860.59
2019-03-24T04:10:58.637Z,860.58
2019-03-24T04:11:58.511Z,860.58
2019-03-24T04:12:58.385Z,860.57
2019-03-24T04:13:58.249Z,860.56
2019-03-24T04:14:58.113Z,860.56
2019-03-24T04:15:57.985Z,860.56
2019-03-24T04:17:06.825Z,860.51
2019-03-24T04:17:57.723Z,860.54
2019-03-24T04:18:57.600Z,860.51
2019-03-24T04:19:57.465Z,860.49
2019-03-24T04:20:57.332Z,860.54
2019-03-24T04:21:57.201Z,860.53
2019-03-24T04:22:57.143Z,860.49
2019-03-24T04:23:56.943Z,860.50
2019-03-24T04:24:56.811Z,860.54
2019-03-24T04:25:56.678Z,860.58
2019-03-24T04:26:56.551Z,860.58
2019-03-24T04:27:56.425Z,860.58
2019-03-24T04:28:56.287Z,860.60
2019-03-24T04:29:56.157Z,860.59
2019-03-24T04:30:56.035Z,860.58
2019-03-24T04:31:55.900Z,860.60
2019-03-24T04:32:55.768Z,860.61
2019-03-24T04:33:55.637Z,860.60
2019-03-24T04:34:55.505Z,860.59
2019-03-24T04:35:55.377Z,860.57
2019-03-24T04:36:55.247Z,860.58
2019-03-24T04:37:55.116Z,860.57
2019-03-24T04:38:54.988Z,860.56
2019-03-24T04:39:54.858Z,860.58
2019-03-24T04:40:54.845Z,860.54
2019-03-24T04:41:54.669Z,860.58
2019-03-24T04:42:54.466Z,860.58
2019-03-24T04:43:54.334Z,860.58
2019-03-24T04:44:54.200Z,860.61
2019-03-24T04:45:54.072Z,860.59
2019-03-24T04:46:53.943Z,860.59
2019-03-24T04:47:53.810Z,860.60
2019-03-24T04:48:53.679Z,860.58
2019-03-24T04:49:53.548Z,860.61
2019-03-24T04:50:53.420Z,860.56
2019-03-24T04:51:53.292Z,860.57
2019-03-24T04:52:53.161Z,860.58
2019-03-24T04:53:53.038Z,860.57
2019-03-24T04:54:52.897Z,860.58
2019-03-24T04:55:52.767Z,860.55
2019-03-24T04:56:52.636Z,860.59
2019-03-24T04:57:52.507Z,860.60
2019-03-24T04:58:52.374Z,860.61
2019-03-24T04:59:52.246Z,860.55
2019-03-24T05:00:52.120Z,860.54
2019-03-24T05:01:51.985Z,860.55
2019-03-24T05:02:51.856Z,860.56
2019-03-24T05:03:51.726Z,860.55
2019-03-24T05:04:51.675Z,860.58
2019-03-24T05:05:51.467Z,860.58
2019-03-24T05:06:51.331Z,860.60
2019-03-24T05:07:51.202Z,860.63
2019-03-24T05:08:51.077Z,860.63
2019-03-24T05:09:50.946Z,860.58
2019-03-24T05:10:50.813Z,860.60
2019-03-24T05:11:50.680Z,860.59
2019-03-24T05:12:50.550Z,860.59
2019-03-24T05:13:50.418Z,860.63
2019-03-24T05:14:50.288Z,860.59
2019-03-24T05:15:50.164Z,860.61
2019-03-24T05:16:50.035Z,860.61
2019-03-24T05:17:49.900Z,860.67
2019-03-24T05:18:49.765Z,860.64
2019-03-24T05:19:49.639Z,860.64
2019-03-24T05:20:49.509Z,860.65
2019-03-24T05:21:49.376Z,860.62
2019-03-24T05:22:49.247Z,860.63
2019-03-24T05:23:49.117Z,860.63
2019-03-24T05:24:48.984Z,860.65
2019-03-24T05:25:48.855Z,860.67
2019-03-24T05:26:48.724Z,860.69
2019-03-24T05:27:48.596Z,860.68
2019-03-24T05:28:48.464Z,860.70
2019-03-24T05:29:48.334Z,860.73
2019-03-24T05:30:48.201Z,860.70
2019-03-24T05:31:48.073Z,860.68
2019-03-24T05:32:47.945Z,860.67
2019-03-24T05:33:47.814Z,860.64
2019-03-24T05:34:47.680Z,860.70
2019-03-24T05:35:47.554Z,860.68
2019-03-24T05:36:47.421Z,860.69
2019-03-24T05:37:47.291Z,860.74
2019-03-24T05:38:47.160Z,860.74
2019-03-24T05:39:47.032Z,860.75
2019-03-24T05:40:46.898Z,860.76
2019-03-24T05:41:46.770Z,860.78
2019-03-24T05:42:46.652Z,860.74
2019-03-24T05:43:46.511Z,860.75
2019-03-24T05:44:46.376Z,860.72
2019-03-24T05:45:46.247Z,860.71
2019-03-24T05:46:46.118Z,860.75
2019-03-24T05:47:45.985Z,860.74
2019-03-24T05:48:45.858Z,860.75
2019-03-24T05:49:45.727Z,860.75
2019-03-24T05:50:45.595Z,860.77
2019-03-24T05:51:45.466Z,860.77
2019-03-24T05:52:45.341Z,860.76
2019-03-24T05:53:45.208Z,860.74
2019-03-24T05:54:45.078Z,860.75
2019-03-24T05:55:44.945Z,860.75
2019-03-24T05:56:44.812Z,860.78
2019-03-24T05:57:44.685Z,860.77
2019-03-24T05:58:44.552Z,860.74
2019-03-24T05:59:44.423Z,860.75
2019-03-24T06:00:44.304Z,860.72
2019-03-24T06:01:44.162Z,860.70
2019-03-24T06:02:44.032Z,860.71
2019-03-24T06:03:43.905Z,860.67
2019-03-24T06:04:43.773Z,860.71
2019-03-24T06:05:43.643Z,860.67
2019-03-24T06:06:43.511Z,860.67
2019-03-24T06:07:44.278Z,860.72
2019-03-24T06:08:43.255Z,860.71
2019-03-24T06:09:43.125Z,860.69
2019-03-24T06:10:42.991Z,860.68
2019-03-24T06:11:42.863Z,860.72
2019-03-24T06:12:42.731Z,860.71
2019-03-24T06:13:42.604Z,860.71
2019-03-24T06:14:42.472Z,860.71
2019-03-24T06:15:42.341Z,860.70
2019-03-24T06:16:42.212Z,860.69
2019-03-24T06:17:47.888Z,860.65
2019-03-24T06:18:41.952Z,860.66
2019-03-24T06:19:41.821Z,860.67
2019-03-24T06:20:41.693Z,860.69
2019-03-24T06:21:41.560Z,860.68
2019-03-24T06:22:41.430Z,860.70
2019-03-24T06:23:41.305Z,860.74
2019-03-24T06:24:41.172Z,860.70
2019-03-24T06:25:41.041Z,860.71
2019-03-24T06:26:40.912Z,860.74
2019-03-24T06:27:40.782Z,860.73
2019-03-24T06:28:40.651Z,860.69
2019-03-24T06:29:42.380Z,860.71
2019-03-24T06:30:40.395Z,860.68
2019-03-24T06:31:40.267Z,860.65
2019-03-24T06:32:40.136Z,860.63
2019-03-24T06:33:40.004Z,860.68
2019-03-24T06:34:39.874Z,860.65
2019-03-24T06:35:39.746Z,860.64
2019-03-24T06:36:40.288Z,860.65
2019-03-24T06:37:39.489Z,860.65
2019-03-24T06:38:39.361Z,860.64
2019-03-24T06:39:39.229Z,860.61
2019-03-24T06:40:39.102Z,860.59
2019-03-24T06:41:38.978Z,860.60
2019-03-24T06:42:38.848Z,860.58
2019-03-24T06:43:38.716Z,860.58
2019-03-24T06:44:38.588Z,860.58
2019-03-24T06:45:38.462Z,860.48
2019-03-24T06:46:38.330Z,860.47
2019-03-24T06:47:38.204Z,860.49
2019-03-24T06:48:38.078Z,860.48
2019-03-24T06:49:37.952Z,860.47
2019-03-24T06:50:37.820Z,860.51
2019-03-24T06:51:37.693Z,860.52
2019-03-24T06:52:37.567Z,860.51
2019-03-24T06:53:37.440Z,860.50
2019-03-24T06:54:37.310Z,860.53
2019-03-24T06:55:37.185Z,860.52
2019-03-24T06:56:37.056Z,860.54
2019-03-24T06:57:36.935Z,860.49
2019-03-24T06:58:36.801Z,860.48
2019-03-24T06:59:36.676Z,860.51
2019-03-24T07:00:36.550Z,860.51
2019-03-24T07:01:36.420Z,860.52
2019-03-24T07:02:36.294Z,860.50
2019-03-24T07:03:36.170Z,860.51
2019-03-24T07:04:36.040Z,860.52
2019-03-24T07:05:36.311Z,860.50
2019-03-24T07:06:35.793Z,860.48
2019-03-24T07:07:35.658Z,860.51
2019-03-24T07:08:35.534Z,860.53
2019-03-24T07:09:35.409Z,860.53
2019-03-24T07:10:35.279Z,860.51
2019-03-24T07:11:35.154Z,860.49
2019-03-24T07:12:35.026Z,860.49
2019-03-24T07:13:34.900Z,860.51
2019-03-24T07:14:34.773Z,860.49
2019-03-24T07:15:34.647Z,860.52
2019-03-24T07:16:34.524Z,860.51
2019-03-24T07:17:34.396Z,860.50
2019-03-24T07:18:34.266Z,860.47
2019-03-24T07:19:34.143Z,860.48
2019-03-24T07:20:34.019Z,860.48
2019-03-24T07:21:33.890Z,860.46
2019-03-24T07:22:33.763Z,860.46
2019-03-24T07:23:33.643Z,860.43
2019-03-24T07:24:33.513Z,860.45
2019-03-24T07:25:33.389Z,860.41
2019-03-24T07:26:33.262Z,860.45
2019-03-24T07:27:33.137Z,860.41
2019-03-24T07:28:33.012Z,860.42
2019-03-24T07:29:32.890Z,860.47
2019-03-24T07:30:32.763Z,860.45
2019-03-24T07:31:32.639Z,860.41
2019-03-24T07:32:32.510Z,860.40
2019-03-24T07:33:32.387Z,860.39
2019-03-24T07:34:32.338Z,860.38
2019-03-24T07:35:32.134Z,860.36
2019-03-24T07:36:32.011Z,860.37
2019-03-24T07:37:31.888Z,860.37
2019-03-24T07:38:31.761Z,860.36
2019-03-24T07:39:31.637Z,860.31
2019-03-24T07:40:31.513Z,860.27
2019-03-24T07:41:31.386Z,860.28
2019-03-24T07:42:31.261Z,860.28
2019-03-24T07:43:31.139Z,860.26
2019-03-24T07:44:31.017Z,860.26
2019-03-24T07:45:30.890Z,860.27
2019-03-24T07:46:30.765Z,860.28
2019-03-24T07:47:30.642Z,860.29
2019-03-24T07:48:30.516Z,860.28
2019-03-24T07:49:30.395Z,860.31
2019-03-24T07:50:30.267Z,860.24
2019-03-24T07:51:30.156Z,860.26
2019-03-24T07:52:30.023Z,860.26
2019-03-24T07:53:29.896Z,860.21
2019-03-24T07:54:29.775Z,860.25
2019-03-24T07:55:29.679Z,860.24
2019-03-24T07:56:29.531Z,860.22
2019-03-24T07:57:29.400Z,860.22
2019-03-24T07:58:29.279Z,860.20
2019-03-24T07:59:29.154Z,860.19
2019-03-24T08:00:29.031Z,860.17
2019-03-24T08:01:28.912Z,860.18
2019-03-24T08:02:28.787Z,860.18
2019-03-24T08:03:28.667Z,860.17
2019-03-24T08:04:28.537Z,860.16
2019-03-24T08:05:28.415Z,860.11
2019-03-24T08:06:28.293Z,860.13
2019-03-24T08:07:28.168Z,860.12
2019-03-24T08:08:28.045Z,860.12
2019-03-24T08:09:27.923Z,860.13
2019-03-24T08:10:27.799Z,860.12
2019-03-24T08:11:27.674Z,860.15
2019-03-24T08:12:27.552Z,860.09
2019-03-24T08:13:27.433Z,860.09
2019-03-24T08:14:27.308Z,860.07
2019-03-24T08:15:27.183Z,860.10
2019-03-24T08:16:27.071Z,860.10
2019-03-24T08:17:26.939Z,860.09
2019-03-24T08:18:30.154Z,860.06
2019-03-24T08:19:26.693Z,860.11
2019-03-24T08:20:26.569Z,860.11
2019-03-24T08:21:26.447Z,860.06
2019-03-24T08:22:26.325Z,860.09
2019-03-24T08:23:26.203Z,860.06
2019-03-24T08:24:26.080Z,860.07
2019-03-24T08:25:25.955Z,860.04
2019-03-24T08:26:25.835Z,860.04
2019-03-24T08:27:25.714Z,860.07
2019-03-24T08:28:25.595Z,860.04
2019-03-24T08:29:25.469Z,860.05
2019-03-24T08:30:25.568Z,860.04
2019-03-24T08:31:25.227Z,860.02
2019-03-24T08:32:25.255Z,860.02
2019-03-24T08:33:24.982Z,860.01
2019-03-24T08:34:25.061Z,859.97
2019-03-24T08:35:24.888Z,859.99
2019-03-24T08:36:24.613Z,859.97
2019-03-24T08:37:24.489Z,860.00
2019-03-24T08:38:24.364Z,859.97
2019-03-24T08:39:24.372Z,859.98
2019-03-24T08:40:24.122Z,859.98
2019-03-24T08:41:24.000Z,859.96
2019-03-24T08:42:24.492Z,859.93
2019-03-24T08:43:23.755Z,859.95
2019-03-24T08:44:23.668Z,859.91
2019-03-24T08:45:23.514Z,859.94
2019-03-24T08:46:23.548Z,859.93
2019-03-24T08:47:23.269Z,859.94
2019-03-24T08:48:23.270Z,859.91
2019-03-24T08:49:23.041Z,859.89
2019-03-24T08:50:22.902Z,859.94
2019-03-24T08:51:22.780Z,859.94
2019-03-24T08:52:22.656Z,859.91
2019-03-24T08:53:22.537Z,859.90
2019-03-24T08:54:22.426Z,859.83
2019-03-24T08:55:22.294Z,859.85
2019-03-24T08:56:22.174Z,859.84
2019-03-24T08:57:22.050Z,859.85
2019-03-24T08:58:21.928Z,859.79
2019-03-24T08:59:21.808Z,859.79
2019-03-24T09:00:30.127Z,859.77
2019-03-24T09:01:21.577Z,859.78
2019-03-24T09:02:22.430Z,859.78
2019-03-24T09:03:21.322Z,859.79
2019-03-24T09:04:21.202Z,859.79
2019-03-24T09:05:21.083Z,859.77
2019-03-24T09:06:20.957Z,859.75
2019-03-24T09:07:21.094Z,859.75
2019-03-24T09:08:20.718Z,859.70
2019-03-24T09:09:20.595Z,859.76
2019-03-24T09:10:20.474Z,859.75
2019-03-24T09:11:30.618Z,859.73
2019-03-24T09:12:20.234Z,859.75
2019-03-24T09:13:20.113Z,859.71
2019-03-24T09:14:19.991Z,859.68
2019-03-24T09:15:19.876Z,859.70
2019-03-24T09:16:19.750Z,859.67
2019-03-24T09:17:19.629Z,859.62
2019-03-24T09:18:19.512Z,859.65
2019-03-24T09:19:19.391Z,859.63
2019-03-24T09:20:20.294Z,859.62
2019-03-24T09:21:19.688Z,859.62
2019-03-24T09:22:19.051Z,859.60
2019-03-24T09:23:18.903Z,859.58
2019-03-24T09:24:18.783Z,859.59
2019-03-24T09:25:18.673Z,859.54
2019-03-24T09:26:18.552Z,859.56
2019-03-24T09:27:18.423Z,859.54
2019-03-24T09:28:18.306Z,859.48
2019-03-24T09:29:18.187Z,859.51
2019-03-24T09:30:18.068Z,859.50
2019-03-24T09:31:18.463Z,859.55
2019-03-24T09:32:18.092Z,859.52
2019-03-24T09:33:17.705Z,859.57
2019-03-24T09:34:17.583Z,859.50
2019-03-24T09:35:17.464Z,859.51
2019-03-24T09:36:17.344Z,859.48
2019-03-24T09:37:17.403Z,859.47
2019-03-24T09:38:17.105Z,859.49
2019-03-24T09:39:16.985Z,859.48
2019-03-24T09:40:18.633Z,859.49
2019-03-24T09:41:16.745Z,859.47
2019-03-24T09:42:16.626Z,859.46
2019-03-24T09:43:16.508Z,859.47
2019-03-24T09:44:16.388Z,859.48
2019-03-24T09:45:16.271Z,859.48
2019-03-24T09:46:16.149Z,859.47
2019-03-24T09:47:16.035Z,859.43
2019-03-24T09:48:15.910Z,859.42
2019-03-24T09:49:15.793Z,859.42
2019-03-24T09:50:15.669Z,859.43
2019-03-24T09:51:15.554Z,859.40
2019-03-24T09:52:15.434Z,859.42
2019-03-24T09:53:15.312Z,859.40
2019-03-24T09:54:15.195Z,859.37
2019-03-24T09:55:15.077Z,859.36
2019-03-24T09:56:14.956Z,859.38
2019-03-24T09:57:14.837Z,859.37
2019-03-24T09:58:14.721Z,859.35
2019-03-24T09:59:14.598Z,859.38
2019-03-24T10:00:14.516Z,859.38
2019-03-24T10:01:14.362Z,859.36
2019-03-24T10:02:14.245Z,859.35
2019-03-24T10:03:14.124Z,859.34
2019-03-24T10:04:14.005Z,859.34
2019-03-24T10:05:13.899Z,859.34
2019-03-24T10:06:13.766Z,859.35
2019-03-24T10:07:13.651Z,859.34
2019-03-24T10:08:13.527Z,859.33
2019-03-24T10:09:13.410Z,859.34
2019-03-24T10:10:13.292Z,859.34
2019-03-24T10:11:13.172Z,859.35
2019-03-24T10:12:13.054Z,859.32
2019-03-24T10:13:12.934Z,859.31
2019-03-24T10:14:12.815Z,859.30
2019-03-24T10:15:12.696Z,859.32
2019-03-24T10:16:12.579Z,859.30
2019-03-24T10:17:12.461Z,859.29
2019-03-24T10:18:12.341Z,859.25
2019-03-24T10:19:14.330Z,859.26
2019-03-24T10:20:12.108Z,859.29
2019-03-24T10:21:11.985Z,859.27
2019-03-24T10:22:11.867Z,859.27
2019-03-24T10:23:11.800Z,859.30
2019-03-24T10:24:11.677Z,859.29
2019-03-24T10:25:11.584Z,859.25
2019-03-24T10:26:11.393Z,859.23
2019-03-24T10:27:11.272Z,859.26
2019-03-24T10:28:11.154Z,859.23
2019-03-24T10:29:11.032Z,859.23
2019-03-24T10:30:10.957Z,859.21
2019-03-24T10:31:10.796Z,859.21
2019-03-24T10:32:10.675Z,859.22
2019-03-24T10:33:10.570Z,859.21
2019-03-24T10:34:10.436Z,859.15
2019-03-24T10:35:10.346Z,859.15
2019-03-24T10:36:10.250Z,859.13
2019-03-24T10:37:10.087Z,859.13
2019-03-24T10:38:09.988Z,859.10
2019-03-24T10:39:09.902Z,859.07
2019-03-24T10:40:09.761Z,859.11
2019-03-24T10:41:09.771Z,859.06
2019-03-24T10:42:09.497Z,859.07
2019-03-24T10:43:09.428Z,859.05
2019-03-24T10:44:09.264Z,859.05
2019-03-24T10:45:09.331Z,859.01
2019-03-24T10:46:09.016Z,859.00
2019-03-24T10:47:08.900Z,858.98
2019-03-24T10:49:25.094Z,858.97
2019-03-24T10:50:21.416Z,858.97
2019-03-24T10:52:15.067Z,858.97
2019-03-24T10:53:14.919Z,859.00
2019-03-24T10:55:07.602Z,858.95
2019-03-24T10:56:07.467Z,858.94
2019-03-24T10:58:00.238Z,858.94
2019-03-24T10:59:00.101Z,858.97
2019-03-24T11:00:52.776Z,858.95
2019-03-24T11:01:52.652Z,858.95
2019-03-24T11:03:45.333Z,858.91
2019-03-24T11:04:45.209Z,858.93
2019-03-24T11:06:37.883Z,858.91
2019-03-24T11:07:37.758Z,858.92
2019-03-24T11:09:30.440Z,858.90
2019-03-24T11:10:30.317Z,858.87
2019-03-24T11:12:23.046Z,858.84
2019-03-24T11:13:23.959Z,858.85
2019-03-24T11:15:15.548Z,858.81
2019-03-24T11:16:15.423Z,858.84
2019-03-24T11:18:08.095Z,858.82
2019-03-24T11:19:07.973Z,858.80
2019-03-24T11:21:01.324Z,858.78
2019-03-24T11:22:00.571Z,858.75
2019-03-24T11:23:54.060Z,858.80
2019-03-24T11:24:53.937Z,858.80
2019-03-24T11:26:46.622Z,858.78
2019-03-24T11:27:46.493Z,858.67
2019-03-24T11:29:39.176Z,858.67
2019-03-24T11:30:39.048Z,858.65
2019-03-24T11:32:31.726Z,858.67
2019-03-24T11:33:31.647Z,858.73
2019-03-24T11:35:24.277Z,858.66
2019-03-24T11:36:24.154Z,858.58
2019-03-24T11:38:16.830Z,858.61
2019-03-24T11:39:16.705Z,858.60
2019-03-24T11:41:09.382Z,858.58
2019-03-24T11:42:09.260Z,858.56
2019-03-24T11:44:01.931Z,858.54
2019-03-24T11:45:01.816Z,858.48
2019-03-24T11:46:54.541Z,858.51
2019-03-24T11:47:54.360Z,858.47
2019-03-24T11:49:49.126Z,858.48
2019-03-24T11:50:47.760Z,858.44
2019-03-24T11:52:40.443Z,858.39
2019-03-24T11:53:40.317Z,858.39
2019-03-24T11:55:33.023Z,858.42
2019-03-24T11:56:32.865Z,858.37
2019-03-24T11:58:25.543Z,858.37
2019-03-24T11:59:25.417Z,858.37
2019-03-24T12:01:18.092Z,858.37
2019-03-24T12:02:17.967Z,858.34
2019-03-24T12:04:10.652Z,858.32
2019-03-24T12:05:10.523Z,858.33
2019-03-24T12:07:03.205Z,858.25
2019-03-24T12:08:03.082Z,858.29
2019-03-24T12:09:56.125Z,858.19
2019-03-24T12:10:55.838Z,858.20
2019-03-24T12:12:48.516Z,858.11
2019-03-24T12:13:48.391Z,858.12
2019-03-24T12:15:41.066Z,858.11
2019-03-24T12:16:40.938Z,858.15
2019-03-24T12:18:34.468Z,858.12
2019-03-24T12:19:34.349Z,858.04
2019-03-24T12:21:27.033Z,858.07
2019-03-24T12:22:26.901Z,858.09
2019-03-24T12:24:34.660Z,858.02
2019-03-24T12:25:34.539Z,858.06
2019-03-24T12:27:27.212Z,858.03
2019-03-24T12:28:27.086Z,858.00
2019-03-24T12:30:20.837Z,857.98
2019-03-24T12:31:20.489Z,858.04
2019-03-24T12:33:13.166Z,858.01
2019-03-24T12:34:13.041Z,857.99
2019-03-24T12:36:05.736Z,857.98
2019-03-24T12:37:05.608Z,857.97
2019-03-24T12:38:58.286Z,857.97
2019-03-24T12:39:58.225Z,857.95
2019-03-24T12:41:50.848Z,857.95
2019-03-24T12:42:50.725Z,857.95
2019-03-24T12:44:43.400Z,857.91
2019-03-24T12:45:43.276Z,857.86
2019-03-24T12:47:35.952Z,857.92
2019-03-24T12:48:35.829Z,857.87
2019-03-24T12:49:35.714Z,857.79
2019-03-24T12:50:35.595Z,857.81
2019-03-24T12:51:35.480Z,857.78
2019-03-24T12:52:35.361Z,857.82
2019-03-24T12:53:35.246Z,857.79
2019-03-24T12:54:35.127Z,857.81
2019-03-24T12:55:35.010Z,857.77
2019-03-24T12:56:34.890Z,857.76
2019-03-24T12:57:34.774Z,857.83
2019-03-24T12:58:34.656Z,857.74
2019-03-24T12:59:34.536Z,857.72
2019-03-24T13:00:34.425Z,857.70
2019-03-24T13:01:34.304Z,857.70
2019-03-24T13:02:34.183Z,857.72
2019-03-24T13:03:35.923Z,857.71
2019-03-24T13:04:33.949Z,857.69